sensor_id;sensor_type;location;lat;lon;timestamp;P1;durP1;ratioP1;P2;durP2;ratioP2
994;SDS011;486;48.726;8.964;2022-07-12T00:01:04;6.00;;;5.50;;
994;SDS011;486;48.726;8.964;2022-07-12T00:03:34;5.97;;;5.57;;
994;SDS011;486;48.726;8.964;2022-07-12T00:06:06;6.00;;;5.50;;
994;SDS011;486;48.726;8.964;2022-07-12T00:08:35;5.97;;;5.53;;
994;SDS011;486;48.726;8.964;2022-07-12T00:11:05;6.20;;;5.60;;
994;SDS011;486;48.726;8.964;2022-07-12T00:13:34;6.40;;;5.90;;
994;SDS011;486;48.726;8.964;2022-07-12T00:16:04;7.07;;;6.47;;
994;SDS011;486;48.726;8.964;2022-07-12T00:18:33;6.30;;;5.80;;
994;SDS011;486;48.726;8.964;2022-07-12T00:21:05;6.30;;;5.70;;
994;SDS011;486;48.726;8.964;2022-07-12T00:23:35;7.00;;;6.40;;
994;SDS011;486;48.726;8.964;2022-07-12T00:26:04;6.63;;;6.03;;
994;SDS011;486;48.726;8.964;2022-07-12T00:28:33;6.30;;;5.80;;
994;SDS011;486;48.726;8.964;2022-07-12T00:31:03;6.67;;;6.00;;
994;SDS011;486;48.726;8.964;2022-07-12T00:33:32;7.60;;;6.53;;
994;SDS011;486;48.726;8.964;2022-07-12T00:36:02;7.03;;;6.53;;
994;SDS011;486;48.726;8.964;2022-07-12T00:38:34;6.27;;;5.77;;
994;SDS011;486;48.726;8.964;2022-07-12T00:41:03;6.63;;;6.03;;
994;SDS011;486;48.726;8.964;2022-07-12T00:43:33;6.97;;;5.87;;
994;SDS011;486;48.726;8.964;2022-07-12T00:46:02;7.03;;;6.43;;
994;SDS011;486;48.726;8.964;2022-07-12T00:48:32;6.13;;;5.63;;
994;SDS011;486;48.726;8.964;2022-07-12T00:51:01;6.20;;;5.70;;
994;SDS011;486;48.726;8.964;2022-07-12T00:53:33;6.57;;;6.07;;
994;SDS011;486;48.726;8.964;2022-07-12T00:56:03;6.67;;;6.07;;
994;SDS011;486;48.726;8.964;2022-07-12T00:58:33;7.17;;;6.57;;
994;SDS011;486;48.726;8.964;2022-07-12T01:01:02;6.40;;;5.90;;
994;SDS011;486;48.726;8.964;2022-07-12T01:03:31;6.43;;;5.93;;
994;SDS011;486;48.726;8.964;2022-07-12T01:06:01;7.20;;;6.53;;
994;SDS011;486;48.726;8.964;2022-07-12T01:08:34;6.23;;;5.63;;
994;SDS011;486;48.726;8.964;2022-07-12T01:11:03;7.00;;;6.33;;
994;SDS011;486;48.726;8.964;2022-07-12T01:13:33;6.40;;;5.80;;
994;SDS011;486;48.726;8.964;2022-07-12T01:16:04;5.87;;;5.47;;
994;SDS011;486;48.726;8.964;2022-07-12T01:18:34;6.70;;;6.10;;
994;SDS011;486;48.726;8.964;2022-07-12T01:21:03;6.23;;;5.67;;
994;SDS011;486;48.726;8.964;2022-07-12T01:23:36;6.13;;;5.63;;
994;SDS011;486;48.726;8.964;2022-07-12T01:26:06;6.40;;;5.90;;
994;SDS011;486;48.726;8.964;2022-07-12T01:28:35;6.30;;;5.70;;
994;SDS011;486;48.726;8.964;2022-07-12T01:31:04;6.37;;;5.87;;
994;SDS011;486;48.726;8.964;2022-07-12T01:33:34;6.03;;;5.53;;
994;SDS011;486;48.726;8.964;2022-07-12T01:36:03;6.37;;;5.87;;
994;SDS011;486;48.726;8.964;2022-07-12T01:38:35;6.17;;;5.67;;
994;SDS011;486;48.726;8.964;2022-07-12T01:41:05;6.30;;;5.80;;
994;SDS011;486;48.726;8.964;2022-07-12T01:43:34;6.40;;;5.90;;
994;SDS011;486;48.726;8.964;2022-07-12T01:46:04;5.43;;;5.07;;
994;SDS011;486;48.726;8.964;2022-07-12T01:48:33;6.57;;;5.97;;
994;SDS011;486;48.726;8.964;2022-07-12T01:51:02;8.97;;;6.60;;
994;SDS011;486;48.726;8.964;2022-07-12T01:53:32;6.90;;;6.30;;
994;SDS011;486;48.726;8.964;2022-07-12T01:56:04;5.77;;;5.27;;
994;SDS011;486;48.726;8.964;2022-07-12T01:58:34;6.77;;;6.20;;
994;SDS011;486;48.726;8.964;2022-07-12T02:01:04;6.97;;;6.43;;
994;SDS011;486;48.726;8.964;2022-07-12T02:03:33;5.60;;;5.10;;
994;SDS011;486;48.726;8.964;2022-07-12T02:06:03;6.13;;;5.63;;
994;SDS011;486;48.726;8.964;2022-07-12T02:08:32;6.30;;;5.70;;
994;SDS011;486;48.726;8.964;2022-07-12T02:11:04;5.60;;;5.10;;
994;SDS011;486;48.726;8.964;2022-07-12T02:13:34;5.63;;;5.23;;
994;SDS011;486;48.726;8.964;2022-07-12T02:16:03;5.30;;;4.90;;
994;SDS011;486;48.726;8.964;2022-07-12T02:18:33;5.40;;;5.00;;
994;SDS011;486;48.726;8.964;2022-07-12T02:21:02;6.17;;;5.57;;
994;SDS011;486;48.726;8.964;2022-07-12T02:23:32;5.73;;;5.23;;
994;SDS011;486;48.726;8.964;2022-07-12T02:26:04;6.30;;;5.70;;
994;SDS011;486;48.726;8.964;2022-07-12T02:28:33;6.23;;;5.63;;
994;SDS011;486;48.726;8.964;2022-07-12T02:31:03;5.73;;;5.23;;
994;SDS011;486;48.726;8.964;2022-07-12T02:33:32;5.30;;;4.80;;
994;SDS011;486;48.726;8.964;2022-07-12T02:36:02;5.87;;;5.40;;
994;SDS011;486;48.726;8.964;2022-07-12T02:38:32;6.20;;;5.70;;
994;SDS011;486;48.726;8.964;2022-07-12T02:41:04;6.27;;;5.73;;
994;SDS011;486;48.726;8.964;2022-07-12T02:43:33;6.77;;;6.17;;
994;SDS011;486;48.726;8.964;2022-07-12T02:46:03;5.93;;;5.43;;
994;SDS011;486;48.726;8.964;2022-07-12T02:48:34;7.23;;;6.67;;
994;SDS011;486;48.726;8.964;2022-07-12T02:51:04;6.50;;;5.90;;
994;SDS011;486;48.726;8.964;2022-07-12T02:53:37;5.90;;;5.40;;
994;SDS011;486;48.726;8.964;2022-07-12T02:56:06;7.00;;;6.40;;
994;SDS011;486;48.726;8.964;2022-07-12T02:58:36;5.50;;;5.00;;
994;SDS011;486;48.726;8.964;2022-07-12T03:01:06;6.23;;;5.63;;
994;SDS011;486;48.726;8.964;2022-07-12T03:03:36;6.67;;;6.07;;
994;SDS011;486;48.726;8.964;2022-07-12T03:06:05;5.83;;;5.33;;
994;SDS011;486;48.726;8.964;2022-07-12T03:08:37;6.23;;;5.73;;
994;SDS011;486;48.726;8.964;2022-07-12T03:11:06;6.60;;;6.00;;
994;SDS011;486;48.726;8.964;2022-07-12T03:13:36;5.97;;;5.37;;
994;SDS011;486;48.726;8.964;2022-07-12T03:16:05;6.50;;;5.90;;
994;SDS011;486;48.726;8.964;2022-07-12T03:18:35;6.33;;;5.73;;
994;SDS011;486;48.726;8.964;2022-07-12T03:21:04;6.03;;;5.50;;
994;SDS011;486;48.726;8.964;2022-07-12T03:23:33;6.37;;;5.77;;
994;SDS011;486;48.726;8.964;2022-07-12T03:26:06;9.10;;;6.27;;
994;SDS011;486;48.726;8.964;2022-07-12T03:28:35;6.17;;;5.67;;
994;SDS011;486;48.726;8.964;2022-07-12T03:31:05;6.17;;;5.60;;
994;SDS011;486;48.726;8.964;2022-07-12T03:33:34;6.33;;;5.83;;
994;SDS011;486;48.726;8.964;2022-07-12T03:36:03;6.90;;;6.20;;
994;SDS011;486;48.726;8.964;2022-07-12T03:38:33;6.73;;;6.03;;
994;SDS011;486;48.726;8.964;2022-07-12T03:41:05;5.90;;;5.33;;
994;SDS011;486;48.726;8.964;2022-07-12T03:43:35;7.23;;;6.50;;
994;SDS011;486;48.726;8.964;2022-07-12T03:46:04;6.83;;;6.00;;
994;SDS011;486;48.726;8.964;2022-07-12T03:48:33;7.00;;;6.40;;
994;SDS011;486;48.726;8.964;2022-07-12T03:51:02;6.73;;;6.13;;
994;SDS011;486;48.726;8.964;2022-07-12T03:53:32;7.03;;;6.40;;
994;SDS011;486;48.726;8.964;2022-07-12T03:56:04;7.13;;;6.47;;
994;SDS011;486;48.726;8.964;2022-07-12T03:58:54;6.23;;;5.73;;
994;SDS011;486;48.726;8.964;2022-07-12T04:01:24;5.40;;;5.00;;
994;SDS011;486;48.726;8.964;2022-07-12T04:03:54;6.17;;;5.57;;
994;SDS011;486;48.726;8.964;2022-07-12T04:06:23;6.20;;;5.60;;
994;SDS011;486;48.726;8.964;2022-07-12T04:08:53;6.97;;;6.23;;
994;SDS011;486;48.726;8.964;2022-07-12T04:11:25;9.43;;;5.97;;
994;SDS011;486;48.726;8.964;2022-07-12T04:13:54;6.67;;;5.97;;
994;SDS011;486;48.726;8.964;2022-07-12T04:16:23;7.50;;;6.80;;
994;SDS011;486;48.726;8.964;2022-07-12T04:18:55;8.10;;;7.40;;
994;SDS011;486;48.726;8.964;2022-07-12T04:21:24;7.37;;;6.67;;
994;SDS011;486;48.726;8.964;2022-07-12T04:23:53;7.30;;;6.60;;
994;SDS011;486;48.726;8.964;2022-07-12T04:26:25;7.43;;;6.83;;
994;SDS011;486;48.726;8.964;2022-07-12T04:28:54;7.67;;;7.07;;
994;SDS011;486;48.726;8.964;2022-07-12T04:31:24;7.43;;;6.83;;
994;SDS011;486;48.726;8.964;2022-07-12T04:33:53;8.43;;;6.30;;
994;SDS011;486;48.726;8.964;2022-07-12T04:36:23;7.67;;;6.87;;
994;SDS011;486;48.726;8.964;2022-07-12T04:38:52;11.77;;;8.63;;
994;SDS011;486;48.726;8.964;2022-07-12T04:41:21;7.07;;;6.47;;
994;SDS011;486;48.726;8.964;2022-07-12T04:43:53;8.10;;;7.30;;
994;SDS011;486;48.726;8.964;2022-07-12T04:46:22;8.10;;;7.40;;
994;SDS011;486;48.726;8.964;2022-07-12T04:48:52;7.80;;;7.03;;
994;SDS011;486;48.726;8.964;2022-07-12T04:51:21;8.33;;;6.90;;
994;SDS011;486;48.726;8.964;2022-07-12T04:53:50;7.73;;;6.20;;
994;SDS011;486;48.726;8.964;2022-07-12T04:56:20;10.10;;;6.43;;
994;SDS011;486;48.726;8.964;2022-07-12T04:58:51;6.73;;;6.20;;
994;SDS011;486;48.726;8.964;2022-07-12T05:01:21;7.33;;;6.63;;
994;SDS011;486;48.726;8.964;2022-07-12T05:03:50;10.10;;;7.17;;
994;SDS011;486;48.726;8.964;2022-07-12T05:06:19;7.90;;;7.17;;
994;SDS011;486;48.726;8.964;2022-07-12T05:08:49;7.70;;;6.90;;
994;SDS011;486;48.726;8.964;2022-07-12T05:11:18;7.90;;;7.20;;
994;SDS011;486;48.726;8.964;2022-07-12T05:13:48;7.07;;;6.50;;
994;SDS011;486;48.726;8.964;2022-07-12T05:16:19;8.30;;;6.63;;
994;SDS011;486;48.726;8.964;2022-07-12T05:18:49;13.20;;;6.73;;
994;SDS011;486;48.726;8.964;2022-07-12T05:21:19;6.73;;;5.87;;
994;SDS011;486;48.726;8.964;2022-07-12T05:23:48;14.93;;;6.43;;
994;SDS011;486;48.726;8.964;2022-07-12T05:26:18;7.73;;;6.93;;
994;SDS011;486;48.726;8.964;2022-07-12T05:28:47;6.83;;;6.23;;
994;SDS011;486;48.726;8.964;2022-07-12T05:31:20;12.17;;;11.03;;
994;SDS011;486;48.726;8.964;2022-07-12T05:33:50;7.40;;;6.10;;
994;SDS011;486;48.726;8.964;2022-07-12T05:36:20;6.77;;;6.13;;
994;SDS011;486;48.726;8.964;2022-07-12T05:38:50;7.70;;;6.90;;
994;SDS011;486;48.726;8.964;2022-07-12T05:41:19;5.70;;;5.20;;
994;SDS011;486;48.726;8.964;2022-07-12T05:43:48;5.97;;;5.47;;
994;SDS011;486;48.726;8.964;2022-07-12T05:46:20;6.00;;;5.50;;
994;SDS011;486;48.726;8.964;2022-07-12T05:48:49;5.50;;;5.10;;
994;SDS011;486;48.726;8.964;2022-07-12T05:51:19;5.57;;;5.10;;
994;SDS011;486;48.726;8.964;2022-07-12T05:54:00;5.10;;;4.70;;
994;SDS011;486;48.726;8.964;2022-07-12T05:56:30;4.77;;;4.37;;
994;SDS011;486;48.726;8.964;2022-07-12T05:58:59;6.00;;;5.23;;
994;SDS011;486;48.726;8.964;2022-07-12T06:01:31;4.93;;;4.63;;
994;SDS011;486;48.726;8.964;2022-07-12T06:04:00;4.53;;;4.13;;
994;SDS011;486;48.726;8.964;2022-07-12T06:06:30;4.80;;;4.37;;
994;SDS011;486;48.726;8.964;2022-07-12T06:08:59;5.27;;;4.97;;
994;SDS011;486;48.726;8.964;2022-07-12T06:11:29;3.87;;;3.57;;
994;SDS011;486;48.726;8.964;2022-07-12T06:13:58;4.30;;;4.00;;
994;SDS011;486;48.726;8.964;2022-07-12T06:16:28;4.00;;;3.70;;
994;SDS011;486;48.726;8.964;2022-07-12T06:19:00;4.07;;;3.67;;
994;SDS011;486;48.726;8.964;2022-07-12T06:21:29;4.03;;;3.73;;
994;SDS011;486;48.726;8.964;2022-07-12T06:23:58;4.23;;;3.93;;
994;SDS011;486;48.726;8.964;2022-07-12T06:26:27;3.40;;;3.20;;
994;SDS011;486;48.726;8.964;2022-07-12T06:28:57;3.57;;;3.37;;
994;SDS011;486;48.726;8.964;2022-07-12T06:31:26;3.27;;;3.07;;
994;SDS011;486;48.726;8.964;2022-07-12T06:34:01;3.20;;;3.00;;
994;SDS011;486;48.726;8.964;2022-07-12T06:36:30;3.70;;;3.00;;
994;SDS011;486;48.726;8.964;2022-07-12T06:38:59;3.43;;;3.13;;
994;SDS011;486;48.726;8.964;2022-07-12T06:41:28;2.10;;;2.00;;
994;SDS011;486;48.726;8.964;2022-07-12T06:43:58;2.30;;;2.20;;
994;SDS011;486;48.726;8.964;2022-07-12T06:46:27;2.70;;;2.50;;
994;SDS011;486;48.726;8.964;2022-07-12T06:48:59;2.10;;;2.00;;
994;SDS011;486;48.726;8.964;2022-07-12T06:51:28;2.30;;;2.10;;
994;SDS011;486;48.726;8.964;2022-07-12T06:53:57;3.20;;;2.90;;
994;SDS011;486;48.726;8.964;2022-07-12T06:56:27;5.47;;;4.97;;
994;SDS011;486;48.726;8.964;2022-07-12T06:58:56;4.80;;;3.30;;
994;SDS011;486;48.726;8.964;2022-07-12T07:01:25;3.40;;;3.13;;
994;SDS011;486;48.726;8.964;2022-07-12T07:03:54;2.50;;;2.30;;
994;SDS011;486;48.726;8.964;2022-07-12T07:06:26;9.43;;;8.63;;
994;SDS011;486;48.726;8.964;2022-07-12T07:08:56;5.83;;;5.30;;
994;SDS011;486;48.726;8.964;2022-07-12T07:11:25;2.80;;;2.60;;
994;SDS011;486;48.726;8.964;2022-07-12T07:13:54;2.30;;;2.20;;
994;SDS011;486;48.726;8.964;2022-07-12T07:16:23;1.90;;;1.80;;
994;SDS011;486;48.726;8.964;2022-07-12T07:18:53;2.20;;;2.10;;
994;SDS011;486;48.726;8.964;2022-07-12T07:21:22;1.83;;;1.73;;
994;SDS011;486;48.726;8.964;2022-07-12T07:23:54;2.30;;;2.10;;
994;SDS011;486;48.726;8.964;2022-07-12T07:26:23;3.53;;;3.20;;
994;SDS011;486;48.726;8.964;2022-07-12T07:28:53;1.90;;;1.80;;
994;SDS011;486;48.726;8.964;2022-07-12T07:31:34;1.90;;;1.80;;
994;SDS011;486;48.726;8.964;2022-07-12T07:34:05;1.83;;;1.73;;
994;SDS011;486;48.726;8.964;2022-07-12T07:36:34;2.47;;;2.27;;
994;SDS011;486;48.726;8.964;2022-07-12T07:39:06;1.70;;;1.60;;
994;SDS011;486;48.726;8.964;2022-07-12T07:41:37;2.27;;;2.17;;
994;SDS011;486;48.726;8.964;2022-07-12T07:44:06;3.70;;;3.50;;
994;SDS011;486;48.726;8.964;2022-07-12T07:46:36;2.50;;;1.33;;
994;SDS011;486;48.726;8.964;2022-07-12T07:49:05;2.50;;;2.40;;
994;SDS011;486;48.726;8.964;2022-07-12T07:51:34;2.13;;;2.03;;
994;SDS011;486;48.726;8.964;2022-07-12T07:54:06;2.00;;;1.87;;
994;SDS011;486;48.726;8.964;2022-07-12T07:56:35;3.73;;;2.00;;
994;SDS011;486;48.726;8.964;2022-07-12T07:59:05;2.60;;;2.40;;
994;SDS011;486;48.726;8.964;2022-07-12T08:01:34;2.00;;;1.93;;
994;SDS011;486;48.726;8.964;2022-07-12T08:04:17;3.10;;;2.90;;
994;SDS011;486;48.726;8.964;2022-07-12T08:06:47;1.77;;;1.67;;
994;SDS011;486;48.726;8.964;2022-07-12T08:09:19;4.83;;;4.50;;
994;SDS011;486;48.726;8.964;2022-07-12T08:11:49;2.07;;;1.97;;
994;SDS011;486;48.726;8.964;2022-07-12T08:14:18;4.50;;;2.90;;
994;SDS011;486;48.726;8.964;2022-07-12T08:16:48;2.37;;;2.27;;
994;SDS011;486;48.726;8.964;2022-07-12T08:19:17;2.00;;;1.90;;
994;SDS011;486;48.726;8.964;2022-07-12T08:21:46;2.13;;;2.03;;
994;SDS011;486;48.726;8.964;2022-07-12T08:24:15;3.53;;;2.13;;
994;SDS011;486;48.726;8.964;2022-07-12T08:26:47;2.13;;;2.03;;
994;SDS011;486;48.726;8.964;2022-07-12T08:31:46;2.10;;;2.00;;
994;SDS011;486;48.726;8.964;2022-07-12T08:34:15;1.90;;;1.80;;
994;SDS011;486;48.726;8.964;2022-07-12T08:36:45;2.20;;;2.10;;
994;SDS011;486;48.726;8.964;2022-07-12T08:39:14;2.73;;;2.63;;
994;SDS011;486;48.726;8.964;2022-07-12T08:41:43;3.30;;;3.07;;
994;SDS011;486;48.726;8.964;2022-07-12T08:44:15;5.50;;;5.00;;
994;SDS011;486;48.726;8.964;2022-07-12T08:46:45;3.00;;;2.90;;
994;SDS011;486;48.726;8.964;2022-07-12T08:49:14;3.37;;;3.10;;
994;SDS011;486;48.726;8.964;2022-07-12T08:51:44;2.60;;;2.40;;
994;SDS011;486;48.726;8.964;2022-07-12T08:54:13;2.40;;;2.30;;
994;SDS011;486;48.726;8.964;2022-07-12T08:56:44;2.80;;;2.70;;
994;SDS011;486;48.726;8.964;2022-07-12T08:59:16;3.00;;;2.80;;
994;SDS011;486;48.726;8.964;2022-07-12T09:01:46;2.80;;;2.60;;
994;SDS011;486;48.726;8.964;2022-07-12T09:04:18;3.30;;;3.00;;
994;SDS011;486;48.726;8.964;2022-07-12T09:06:49;3.17;;;2.97;;
994;SDS011;486;48.726;8.964;2022-07-12T09:09:26;3.30;;;3.10;;
994;SDS011;486;48.726;8.964;2022-07-12T09:11:58;3.17;;;3.00;;
994;SDS011;486;48.726;8.964;2022-07-12T09:14:28;4.83;;;4.53;;
994;SDS011;486;48.726;8.964;2022-07-12T09:16:58;4.00;;;3.70;;
994;SDS011;486;48.726;8.964;2022-07-12T09:19:30;4.33;;;4.03;;
994;SDS011;486;48.726;8.964;2022-07-12T09:21:59;4.10;;;3.80;;
994;SDS011;486;48.726;8.964;2022-07-12T09:24:30;3.53;;;3.33;;
994;SDS011;486;48.726;8.964;2022-07-12T09:27:03;5.07;;;4.73;;
994;SDS011;486;48.726;8.964;2022-07-12T09:29:33;3.60;;;3.40;;
994;SDS011;486;48.726;8.964;2022-07-12T09:32:15;3.70;;;3.50;;
994;SDS011;486;48.726;8.964;2022-07-12T09:34:56;3.63;;;3.43;;
994;SDS011;486;48.726;8.964;2022-07-12T09:37:39;4.67;;;4.27;;
994;SDS011;486;48.726;8.964;2022-07-12T09:40:09;3.63;;;3.33;;
994;SDS011;486;48.726;8.964;2022-07-12T09:42:41;2.80;;;2.70;;
994;SDS011;486;48.726;8.964;2022-07-12T09:45:11;2.60;;;2.50;;
994;SDS011;486;48.726;8.964;2022-07-12T09:47:40;3.50;;;3.30;;
994;SDS011;486;48.726;8.964;2022-07-12T09:50:12;3.53;;;3.33;;
994;SDS011;486;48.726;8.964;2022-07-12T09:52:41;3.03;;;2.93;;
994;SDS011;486;48.726;8.964;2022-07-12T09:55:13;3.93;;;3.77;;
994;SDS011;486;48.726;8.964;2022-07-12T09:57:47;4.10;;;3.90;;
994;SDS011;486;48.726;8.964;2022-07-12T10:00:17;3.63;;;3.43;;
994;SDS011;486;48.726;8.964;2022-07-12T10:02:47;5.33;;;4.93;;
994;SDS011;486;48.726;8.964;2022-07-12T10:05:17;4.73;;;4.43;;
994;SDS011;486;48.726;8.964;2022-07-12T10:07:47;3.83;;;3.63;;
994;SDS011;486;48.726;8.964;2022-07-12T10:10:16;3.50;;;3.30;;
994;SDS011;486;48.726;8.964;2022-07-12T10:12:48;3.80;;;3.50;;
994;SDS011;486;48.726;8.964;2022-07-12T10:15:19;3.30;;;3.20;;
994;SDS011;486;48.726;8.964;2022-07-12T10:17:51;3.03;;;2.83;;
994;SDS011;486;48.726;8.964;2022-07-12T10:20:24;2.93;;;2.83;;
994;SDS011;486;48.726;8.964;2022-07-12T10:22:54;3.00;;;2.90;;
994;SDS011;486;48.726;8.964;2022-07-12T10:25:47;3.00;;;2.90;;
994;SDS011;486;48.726;8.964;2022-07-12T10:28:16;4.80;;;4.40;;
994;SDS011;486;48.726;8.964;2022-07-12T10:30:46;5.93;;;5.53;;
994;SDS011;486;48.726;8.964;2022-07-12T10:33:17;4.53;;;4.33;;
994;SDS011;486;48.726;8.964;2022-07-12T10:35:58;3.40;;;3.20;;
994;SDS011;486;48.726;8.964;2022-07-12T10:38:28;3.43;;;3.30;;
994;SDS011;486;48.726;8.964;2022-07-12T10:41:15;3.30;;;3.10;;
994;SDS011;486;48.726;8.964;2022-07-12T10:43:48;3.10;;;3.00;;
994;SDS011;486;48.726;8.964;2022-07-12T10:46:34;3.40;;;3.30;;
994;SDS011;486;48.726;8.964;2022-07-12T10:54:42;3.17;;;3.07;;
994;SDS011;486;48.726;8.964;2022-07-12T10:57:18;3.27;;;3.07;;
994;SDS011;486;48.726;8.964;2022-07-12T11:00:08;3.40;;;3.20;;
994;SDS011;486;48.726;8.964;2022-07-12T11:02:38;3.03;;;2.93;;
994;SDS011;486;48.726;8.964;2022-07-12T11:05:08;3.80;;;3.60;;
994;SDS011;486;48.726;8.964;2022-07-12T11:07:38;7.13;;;6.63;;
994;SDS011;486;48.726;8.964;2022-07-12T11:10:07;3.10;;;2.90;;
994;SDS011;486;48.726;8.964;2022-07-12T11:12:43;3.33;;;3.23;;
994;SDS011;486;48.726;8.964;2022-07-12T11:15:12;3.33;;;3.23;;
994;SDS011;486;48.726;8.964;2022-07-12T11:17:41;3.00;;;2.90;;
994;SDS011;486;48.726;8.964;2022-07-12T11:20:11;3.40;;;3.30;;
994;SDS011;486;48.726;8.964;2022-07-12T11:22:41;3.37;;;3.27;;
994;SDS011;486;48.726;8.964;2022-07-12T11:25:11;3.57;;;3.47;;
994;SDS011;486;48.726;8.964;2022-07-12T11:27:43;3.17;;;3.07;;
994;SDS011;486;48.726;8.964;2022-07-12T11:30:14;3.60;;;3.50;;
994;SDS011;486;48.726;8.964;2022-07-12T11:32:43;3.00;;;2.90;;
994;SDS011;486;48.726;8.964;2022-07-12T11:35:17;2.90;;;2.80;;
994;SDS011;486;48.726;8.964;2022-07-12T11:37:47;3.47;;;3.37;;
994;SDS011;486;48.726;8.964;2022-07-12T11:40:24;3.40;;;3.17;;
994;SDS011;486;48.726;8.964;2022-07-12T11:42:57;3.43;;;3.33;;
994;SDS011;486;48.726;8.964;2022-07-12T11:45:28;3.57;;;3.47;;
994;SDS011;486;48.726;8.964;2022-07-12T11:48:00;3.90;;;3.80;;
994;SDS011;486;48.726;8.964;2022-07-12T11:50:31;3.50;;;3.40;;
994;SDS011;486;48.726;8.964;2022-07-12T11:53:01;3.67;;;3.57;;
994;SDS011;486;48.726;8.964;2022-07-12T11:55:31;3.60;;;3.50;;
994;SDS011;486;48.726;8.964;2022-07-12T11:58:11;4.60;;;4.40;;
994;SDS011;486;48.726;8.964;2022-07-12T12:00:40;4.83;;;4.63;;
994;SDS011;486;48.726;8.964;2022-07-12T12:03:10;4.40;;;4.20;;
994;SDS011;486;48.726;8.964;2022-07-12T12:05:41;3.57;;;3.47;;
994;SDS011;486;48.726;8.964;2022-07-12T12:08:11;3.97;;;3.87;;
994;SDS011;486;48.726;8.964;2022-07-12T12:10:41;4.33;;;4.03;;
994;SDS011;486;48.726;8.964;2022-07-12T12:13:15;4.10;;;4.00;;
994;SDS011;486;48.726;8.964;2022-07-12T12:15:48;4.50;;;4.37;;
994;SDS011;486;48.726;8.964;2022-07-12T12:18:28;10.67;;;9.80;;
994;SDS011;486;48.726;8.964;2022-07-12T12:21:00;3.90;;;3.80;;
994;SDS011;486;48.726;8.964;2022-07-12T12:23:31;4.53;;;4.37;;
994;SDS011;486;48.726;8.964;2022-07-12T12:26:10;4.60;;;4.50;;
994;SDS011;486;48.726;8.964;2022-07-12T12:28:47;4.70;;;4.50;;
994;SDS011;486;48.726;8.964;2022-07-12T12:31:17;4.10;;;4.00;;
994;SDS011;486;48.726;8.964;2022-07-12T12:33:48;4.80;;;4.70;;
994;SDS011;486;48.726;8.964;2022-07-12T12:36:19;6.10;;;5.80;;
994;SDS011;486;48.726;8.964;2022-07-12T12:38:49;4.50;;;4.40;;
994;SDS011;486;48.726;8.964;2022-07-12T12:41:20;6.60;;;6.30;;
994;SDS011;486;48.726;8.964;2022-07-12T12:44:00;4.60;;;4.50;;
994;SDS011;486;48.726;8.964;2022-07-12T12:46:43;4.57;;;4.37;;
994;SDS011;486;48.726;8.964;2022-07-12T12:52:14;5.00;;;4.70;;
994;SDS011;486;48.726;8.964;2022-07-12T12:54:43;4.90;;;4.80;;
994;SDS011;486;48.726;8.964;2022-07-12T12:57:12;5.30;;;5.10;;
994;SDS011;486;48.726;8.964;2022-07-12T12:59:44;4.63;;;4.33;;
994;SDS011;486;48.726;8.964;2022-07-12T13:02:14;4.90;;;4.70;;
994;SDS011;486;48.726;8.964;2022-07-12T13:04:44;5.20;;;5.10;;
994;SDS011;486;48.726;8.964;2022-07-12T13:07:13;5.20;;;5.00;;
994;SDS011;486;48.726;8.964;2022-07-12T13:09:42;5.40;;;5.20;;
994;SDS011;486;48.726;8.964;2022-07-12T13:12:12;5.40;;;5.30;;
994;SDS011;486;48.726;8.964;2022-07-12T13:14:41;5.33;;;5.23;;
994;SDS011;486;48.726;8.964;2022-07-12T13:17:13;5.80;;;5.60;;
994;SDS011;486;48.726;8.964;2022-07-12T13:19:42;5.67;;;5.27;;
994;SDS011;486;48.726;8.964;2022-07-12T13:22:12;5.77;;;5.67;;
994;SDS011;486;48.726;8.964;2022-07-12T13:24:41;5.80;;;5.60;;
994;SDS011;486;48.726;8.964;2022-07-12T13:27:10;5.83;;;5.73;;
994;SDS011;486;48.726;8.964;2022-07-12T13:29:40;5.73;;;5.60;;
994;SDS011;486;48.726;8.964;2022-07-12T13:32:12;6.33;;;6.17;;
994;SDS011;486;48.726;8.964;2022-07-12T13:34:41;6.33;;;6.13;;
994;SDS011;486;48.726;8.964;2022-07-12T13:37:11;6.97;;;6.67;;
994;SDS011;486;48.726;8.964;2022-07-12T13:39:40;6.30;;;6.10;;
994;SDS011;486;48.726;8.964;2022-07-12T13:42:22;6.67;;;6.53;;
994;SDS011;486;48.726;8.964;2022-07-12T13:44:51;6.57;;;6.40;;
994;SDS011;486;48.726;8.964;2022-07-12T13:47:23;7.13;;;6.80;;
994;SDS011;486;48.726;8.964;2022-07-12T13:49:52;6.83;;;6.60;;
994;SDS011;486;48.726;8.964;2022-07-12T13:52:22;6.80;;;6.60;;
994;SDS011;486;48.726;8.964;2022-07-12T13:54:51;6.93;;;6.73;;
994;SDS011;486;48.726;8.964;2022-07-12T13:57:20;8.30;;;8.10;;
994;SDS011;486;48.726;8.964;2022-07-12T13:59:50;7.10;;;6.90;;
994;SDS011;486;48.726;8.964;2022-07-12T14:02:19;7.87;;;7.67;;
994;SDS011;486;48.726;8.964;2022-07-12T14:04:51;7.80;;;7.60;;
994;SDS011;486;48.726;8.964;2022-07-12T14:07:21;8.07;;;7.73;;
994;SDS011;486;48.726;8.964;2022-07-12T14:09:50;8.40;;;8.20;;
994;SDS011;486;48.726;8.964;2022-07-12T14:12:19;8.20;;;7.90;;
994;SDS011;486;48.726;8.964;2022-07-12T14:14:49;9.07;;;8.67;;
994;SDS011;486;48.726;8.964;2022-07-12T14:17:33;9.13;;;8.93;;
994;SDS011;486;48.726;8.964;2022-07-12T14:20:03;9.47;;;9.27;;
994;SDS011;486;48.726;8.964;2022-07-12T14:22:34;9.90;;;9.60;;
994;SDS011;486;48.726;8.964;2022-07-12T14:25:04;10.37;;;10.07;;
994;SDS011;486;48.726;8.964;2022-07-12T14:27:34;10.97;;;10.37;;
994;SDS011;486;48.726;8.964;2022-07-12T14:30:05;10.23;;;10.03;;
994;SDS011;486;48.726;8.964;2022-07-12T14:32:38;11.07;;;10.77;;
994;SDS011;486;48.726;8.964;2022-07-12T14:35:08;11.27;;;10.87;;
994;SDS011;486;48.726;8.964;2022-07-12T14:37:38;12.17;;;11.50;;
994;SDS011;486;48.726;8.964;2022-07-12T14:40:08;11.03;;;10.70;;
994;SDS011;486;48.726;8.964;2022-07-12T14:42:38;11.30;;;11.00;;
994;SDS011;486;48.726;8.964;2022-07-12T14:45:09;12.90;;;12.50;;
994;SDS011;486;48.726;8.964;2022-07-12T14:47:41;13.17;;;12.67;;
994;SDS011;486;48.726;8.964;2022-07-12T14:50:11;12.07;;;11.70;;
994;SDS011;486;48.726;8.964;2022-07-12T14:52:41;12.67;;;12.37;;
994;SDS011;486;48.726;8.964;2022-07-12T14:55:11;13.20;;;12.80;;
994;SDS011;486;48.726;8.964;2022-07-12T14:57:41;12.47;;;12.07;;
994;SDS011;486;48.726;8.964;2022-07-12T15:00:11;13.30;;;12.80;;
994;SDS011;486;48.726;8.964;2022-07-12T15:02:43;12.40;;;12.03;;
994;SDS011;486;48.726;8.964;2022-07-12T15:05:13;13.60;;;12.93;;
994;SDS011;486;48.726;8.964;2022-07-12T15:07:42;13.33;;;12.93;;
994;SDS011;486;48.726;8.964;2022-07-12T15:10:11;13.00;;;12.70;;
994;SDS011;486;48.726;8.964;2022-07-12T15:12:40;12.60;;;12.30;;
994;SDS011;486;48.726;8.964;2022-07-12T15:15:10;12.70;;;12.40;;
994;SDS011;486;48.726;8.964;2022-07-12T15:17:39;13.13;;;12.83;;
994;SDS011;486;48.726;8.964;2022-07-12T15:20:11;14.27;;;13.60;;
994;SDS011;486;48.726;8.964;2022-07-12T15:22:41;13.50;;;13.20;;
994;SDS011;486;48.726;8.964;2022-07-12T15:25:10;17.30;;;16.50;;
994;SDS011;486;48.726;8.964;2022-07-12T15:27:39;14.37;;;13.87;;
994;SDS011;486;48.726;8.964;2022-07-12T15:30:10;14.37;;;13.90;;
994;SDS011;486;48.726;8.964;2022-07-12T15:32:40;14.40;;;13.93;;
994;SDS011;486;48.726;8.964;2022-07-12T15:35:11;17.27;;;16.43;;
994;SDS011;486;48.726;8.964;2022-07-12T15:37:41;14.70;;;14.30;;
994;SDS011;486;48.726;8.964;2022-07-12T15:40:11;14.10;;;13.70;;
994;SDS011;486;48.726;8.964;2022-07-12T15:42:40;13.90;;;13.50;;
994;SDS011;486;48.726;8.964;2022-07-12T15:45:10;13.73;;;13.40;;
994;SDS011;486;48.726;8.964;2022-07-12T15:47:40;13.80;;;13.50;;
994;SDS011;486;48.726;8.964;2022-07-12T15:50:12;14.70;;;14.30;;
994;SDS011;486;48.726;8.964;2022-07-12T15:52:41;14.53;;;14.13;;
994;SDS011;486;48.726;8.964;2022-07-12T15:55:23;17.20;;;16.50;;
994;SDS011;486;48.726;8.964;2022-07-12T15:57:52;17.73;;;17.13;;
994;SDS011;486;48.726;8.964;2022-07-12T16:00:21;16.87;;;16.17;;
994;SDS011;486;48.726;8.964;2022-07-12T16:02:52;18.50;;;17.70;;
994;SDS011;486;48.726;8.964;2022-07-12T16:05:24;14.07;;;13.67;;
994;SDS011;486;48.726;8.964;2022-07-12T16:07:56;13.83;;;13.53;;
994;SDS011;486;48.726;8.964;2022-07-12T16:10:25;19.87;;;18.97;;
994;SDS011;486;48.726;8.964;2022-07-12T16:12:55;13.73;;;13.33;;
994;SDS011;486;48.726;8.964;2022-07-12T16:15:24;14.50;;;14.00;;